createdAt,value
2018-06-15T07:41:04.543Z,18.40
2018-06-15T07:43:33.110Z,18.80
2018-06-15T07:46:01.766Z,18.70
2018-06-15T07:48:30.983Z,18.70
2018-06-15T07:50:59.558Z,18.60
2018-06-15T07:53:28.974Z,18.70
2018-06-15T07:55:58.384Z,18.70
2018-06-15T07:58:27.493Z,18.90
2018-06-15T08:00:56.234Z,19.00
2018-06-15T08:03:25.009Z,19.30
2018-06-15T08:05:54.269Z,19.60
2018-06-15T08:08:23.532Z,20.00
2018-06-15T08:10:52.123Z,20.50
2018-06-15T08:13:20.694Z,20.90
2018-06-15T08:15:49.437Z,21.50
2018-06-15T08:18:17.957Z,21.90
2018-06-15T08:20:46.464Z,22.20
2018-06-15T08:23:15.039Z,22.50
2018-06-15T08:25:43.620Z,22.80
2018-06-15T08:28:12.140Z,23.30
2018-06-15T08:30:40.724Z,23.70
2018-06-15T08:33:09.237Z,24.00
2018-06-15T08:35:37.855Z,24.20
2018-06-15T08:38:06.384Z,24.50
2018-06-15T08:40:34.873Z,24.70
2018-06-15T08:43:03.447Z,24.80
2018-06-15T08:45:32.081Z,24.90
2018-06-15T08:48:00.639Z,24.80
2018-06-15T08:50:29.140Z,24.90
2018-06-15T08:52:57.642Z,24.90
2018-06-15T08:55:26.168Z,24.90
2018-06-15T08:57:55.470Z,24.90
2018-06-15T09:00:23.988Z,24.70
2018-06-15T09:02:52.556Z,24.50
2018-06-15T09:05:21.217Z,24.40
2018-06-15T09:07:49.769Z,24.20
2018-06-15T09:10:18.949Z,24.20
2018-06-15T09:12:47.535Z,24.40
2018-06-15T09:15:16.723Z,24.50
2018-06-15T09:17:45.841Z,24.80
2018-06-15T09:20:14.429Z,24.80
2018-06-15T09:22:43.029Z,24.90
2018-06-15T09:27:41.761Z,25.00
2018-06-15T09:30:10.887Z,25.10
2018-06-15T09:32:39.525Z,25.10
2018-06-15T09:35:08.157Z,25.20
2018-06-15T09:37:36.755Z,25.20
2018-06-15T09:40:05.393Z,25.20
2018-06-15T09:42:33.915Z,25.00
2018-06-15T09:45:02.488Z,24.80
2018-06-15T09:47:31.036Z,24.40
2018-06-15T09:49:59.622Z,24.30
2018-06-15T09:52:28.159Z,24.30
2018-06-15T09:54:57.346Z,24.30
2018-06-15T09:57:25.856Z,24.30
2018-06-15T09:59:54.467Z,24.40
2018-06-15T10:02:23.978Z,24.40
2018-06-15T10:04:52.630Z,24.50
2018-06-15T10:07:21.257Z,24.60
2018-06-15T10:09:49.766Z,24.60
2018-06-15T10:12:18.318Z,24.70
2018-06-15T10:14:48.585Z,24.60
2018-06-15T10:19:45.353Z,24.30
2018-06-15T10:22:14.514Z,24.30
2018-06-15T10:24:43.134Z,24.40
2018-06-15T10:27:11.730Z,24.50
2018-06-15T10:29:42.210Z,24.80
2018-06-15T10:32:11.575Z,25.00
2018-06-15T10:34:40.145Z,25.20
2018-06-15T10:37:10.638Z,25.40
2018-06-15T10:39:39.784Z,25.50
2018-06-15T10:42:08.328Z,25.60
2018-06-15T10:44:36.993Z,25.80
2018-06-15T10:47:05.559Z,25.80
2018-06-15T10:49:34.099Z,25.60
2018-06-15T10:52:03.272Z,25.40
2018-06-15T10:54:32.881Z,25.40
2018-06-15T10:57:01.414Z,25.40
2018-06-15T10:59:29.956Z,25.50
2018-06-15T11:01:58.558Z,25.70
2018-06-15T11:04:27.163Z,25.90
2018-06-15T11:06:55.751Z,26.10
2018-06-15T11:09:24.358Z,26.20
2018-06-15T11:11:53.711Z,26.20
2018-06-15T11:14:22.317Z,26.10
2018-06-15T11:16:50.813Z,25.90
2018-06-15T11:19:19.415Z,25.90
2018-06-15T11:24:16.166Z,26.00
2018-06-15T11:26:44.744Z,26.10
2018-06-15T11:29:14.502Z,26.20
2018-06-15T11:31:43.024Z,26.20
2018-06-15T11:34:11.619Z,26.40
2018-06-15T11:36:40.189Z,26.60
2018-06-15T11:39:09.711Z,26.70
2018-06-15T11:41:38.258Z,26.70
2018-06-15T11:44:06.957Z,26.80
2018-06-15T11:46:35.805Z,27.00
2018-06-15T11:49:04.359Z,27.20
2018-06-15T11:51:32.897Z,27.10
2018-06-15T11:54:01.464Z,27.10
2018-06-15T11:56:30.024Z,27.10
2018-06-15T11:58:58.568Z,27.10
2018-06-15T12:01:27.074Z,27.20
2018-06-15T12:03:56.623Z,27.30
2018-06-15T12:06:25.178Z,27.20
2018-06-15T12:08:53.746Z,27.10
2018-06-15T12:11:22.274Z,27.00
2018-06-15T12:13:50.838Z,26.90
2018-06-15T12:16:19.487Z,26.70
2018-06-15T12:18:48.073Z,26.60
2018-06-15T12:21:17.249Z,26.60
2018-06-15T12:23:45.769Z,26.70
2018-06-15T12:26:14.402Z,26.90
2018-06-15T12:28:43.042Z,27.20
2018-06-15T12:31:11.605Z,27.50
2018-06-15T12:33:40.931Z,27.60
2018-06-15T12:36:09.518Z,27.90
2018-06-15T12:38:38.021Z,28.10
2018-06-15T12:41:06.560Z,28.30
2018-06-15T12:43:36.278Z,28.40
2018-06-15T12:46:05.061Z,28.50
2018-06-15T12:48:33.444Z,28.50
2018-06-15T12:51:02.002Z,28.70
2018-06-15T12:53:30.574Z,28.80
2018-06-15T12:56:00.051Z,29.00
2018-06-15T12:58:28.561Z,29.10
2018-06-15T13:00:57.076Z,29.30
2018-06-15T13:03:25.650Z,29.60
2018-06-15T13:05:54.382Z,29.90
2018-06-15T13:08:22.886Z,30.40
2018-06-15T13:10:51.954Z,30.70
2018-06-15T13:13:20.485Z,31.00
2018-06-15T13:15:49.156Z,31.10
2018-06-15T13:18:17.695Z,31.30
2018-06-15T13:20:46.258Z,31.50
2018-06-15T13:23:15.582Z,31.70
2018-06-15T13:25:44.783Z,31.80
2018-06-15T13:28:13.346Z,32.00
2018-06-15T13:30:41.921Z,32.30
2018-06-15T13:33:10.405Z,32.60
2018-06-15T13:35:39.061Z,32.90
2018-06-15T13:38:07.706Z,33.40
2018-06-15T13:40:36.207Z,34.20
2018-06-15T13:43:04.880Z,35.80
2018-06-15T13:45:33.699Z,37.20
2018-06-15T13:48:02.268Z,39.60
2018-06-15T13:50:30.813Z,42.50
2018-06-15T13:52:59.399Z,43.90
2018-06-15T13:55:28.018Z,45.10
2018-06-15T13:57:56.598Z,43.50
2018-06-15T14:00:25.518Z,41.20
2018-06-15T14:02:56.018Z,44.00
2018-06-15T14:05:24.728Z,47.20
2018-06-15T14:07:53.271Z,50.20
2018-06-15T14:12:51.882Z,54.50
2018-06-15T14:15:21.409Z,55.70
2018-06-15T14:17:49.953Z,56.90
2018-06-15T14:20:18.539Z,56.60
2018-06-15T14:22:47.113Z,54.30
2018-06-15T14:25:16.430Z,54.20
2018-06-15T14:27:46.830Z,55.80
2018-06-15T14:30:16.726Z,57.00
2018-06-15T14:32:46.040Z,57.60
2018-06-15T14:35:16.131Z,57.80
2018-06-15T14:37:44.987Z,57.60
2018-06-15T14:40:14.190Z,58.30
2018-06-15T14:42:44.399Z,59.10
2018-06-15T14:45:13.062Z,59.50
2018-06-15T14:47:44.731Z,59.50
2018-06-15T14:50:13.422Z,59.60
2018-06-15T14:52:42.884Z,59.10
2018-06-15T14:55:13.119Z,58.60
2018-06-15T14:57:42.193Z,57.90
2018-06-15T15:00:11.317Z,56.70
2018-06-15T15:02:41.102Z,55.70
2018-06-15T15:05:10.367Z,54.80
2018-06-15T15:07:39.174Z,54.30
2018-06-15T15:10:09.256Z,52.60
2018-06-15T15:12:37.866Z,50.80
2018-06-15T15:15:06.562Z,50.90
2018-06-15T15:17:35.694Z,51.40
2018-06-15T15:20:04.286Z,52.70
2018-06-15T15:22:32.968Z,54.00
2018-06-15T15:25:01.989Z,55.00
2018-06-15T15:27:30.626Z,55.70
2018-06-15T15:30:00.120Z,56.20
2018-06-15T15:32:29.290Z,56.40
2018-06-15T15:34:58.658Z,56.30
2018-06-15T15:37:27.231Z,56.50
2018-06-15T15:39:55.780Z,56.00
2018-06-15T15:42:25.340Z,55.60
2018-06-15T15:44:54.052Z,55.70
2018-06-15T15:47:22.519Z,56.00
2018-06-15T15:49:51.079Z,56.20
2018-06-15T15:52:19.537Z,55.90
2018-06-15T15:54:48.035Z,55.60
2018-06-15T15:57:16.532Z,55.90
2018-06-15T15:59:45.011Z,56.20
2018-06-15T16:02:13.567Z,56.00
2018-06-15T16:04:42.196Z,55.30
2018-06-15T16:07:10.746Z,51.50
2018-06-15T16:09:39.296Z,50.00
2018-06-15T16:12:07.954Z,49.70
2018-06-15T16:14:37.405Z,49.50
2018-06-15T16:17:06.010Z,48.60
2018-06-15T16:19:34.887Z,48.30
2018-06-15T16:22:03.932Z,48.10
2018-06-15T16:24:32.583Z,49.50
2018-06-15T16:27:01.206Z,50.60
2018-06-15T16:29:31.040Z,50.80
2018-06-15T16:32:00.244Z,51.20
2018-06-15T16:34:30.214Z,51.30
2018-06-15T16:37:00.625Z,51.10
2018-06-15T16:39:29.858Z,50.60
2018-06-15T16:41:58.754Z,50.30
2018-06-15T16:44:27.340Z,50.20
2018-06-15T16:46:56.630Z,50.20
2018-06-15T16:49:25.221Z,50.20
2018-06-15T16:51:56.444Z,50.30
2018-06-15T16:54:25.021Z,50.00
2018-06-15T16:56:53.754Z,49.00
2018-06-15T16:59:22.931Z,48.50
2018-06-15T17:01:51.652Z,49.00
2018-06-15T17:04:21.275Z,48.80
2018-06-15T17:06:50.535Z,48.00
2018-06-15T17:11:49.932Z,43.50
2018-06-15T17:14:19.984Z,40.70
2018-06-15T17:16:49.565Z,38.70
2018-06-15T17:19:19.399Z,37.00
2018-06-15T17:21:47.949Z,35.50
2018-06-15T17:24:16.451Z,34.40
2018-06-15T17:26:45.552Z,33.40
2018-06-15T17:29:14.339Z,32.40
2018-06-15T17:31:42.936Z,32.00
2018-06-15T17:34:11.756Z,31.70
2018-06-15T17:36:44.685Z,31.20
2018-06-15T17:39:14.222Z,30.90
2018-06-15T17:41:44.981Z,30.50
2018-06-15T17:44:16.293Z,30.20
2018-06-15T17:46:45.524Z,29.90
2018-06-15T17:49:14.936Z,29.70
2018-06-15T17:51:43.576Z,29.40
2018-06-15T17:54:13.494Z,29.10
2018-06-15T17:56:43.107Z,28.90
2018-06-15T17:59:13.122Z,28.60
2018-06-15T18:01:42.869Z,28.40
2018-06-15T18:04:12.154Z,28.20
2018-06-15T18:06:40.765Z,27.90
2018-06-15T18:09:11.136Z,27.60
2018-06-15T18:11:41.001Z,27.40
2018-06-15T18:14:09.666Z,27.20
2018-06-15T18:16:41.230Z,27.00
2018-06-15T18:19:10.545Z,26.80
2018-06-15T18:21:41.112Z,26.60
2018-06-15T18:24:11.869Z,26.40
2018-06-15T18:26:41.432Z,26.10
2018-06-15T18:29:10.050Z,25.90
2018-06-15T18:31:40.548Z,25.70
2018-06-15T18:34:10.641Z,25.50
2018-06-15T18:36:40.578Z,25.30
2018-06-15T18:39:14.330Z,25.30
2018-06-15T18:41:44.472Z,25.20
2018-06-15T18:44:14.384Z,25.10
2018-06-15T18:46:43.283Z,25.00
2018-06-15T18:49:11.962Z,25.00
2018-06-15T18:51:46.025Z,24.90
2018-06-15T18:54:16.801Z,24.70
2018-06-15T18:56:48.004Z,24.60
2018-06-15T18:59:17.652Z,24.50
2018-06-15T19:01:46.279Z,24.30
2018-06-15T19:04:15.654Z,24.20
2018-06-15T19:06:46.914Z,24.00
2018-06-15T19:09:33.254Z,23.90
2018-06-15T19:14:13.322Z,23.80
2018-06-15T19:16:46.684Z,23.70
2018-06-15T19:19:17.131Z,23.50
2018-06-15T19:21:46.412Z,23.40
2018-06-15T19:24:16.028Z,23.30
2018-06-15T19:26:45.729Z,23.20
2018-06-15T19:29:15.249Z,23.10
2018-06-15T19:31:45.631Z,23.00
2018-06-15T19:34:15.472Z,22.90
2018-06-15T19:36:45.567Z,22.70
2018-06-15T19:39:14.951Z,22.60
2018-06-15T19:41:45.528Z,22.50
2018-06-15T19:44:16.024Z,22.40
2018-06-15T19:46:45.525Z,22.30
2018-06-15T19:49:16.008Z,22.30
2018-06-15T19:51:45.221Z,22.20
2018-06-15T19:54:17.560Z,22.30
2018-06-15T19:56:48.558Z,22.20
2018-06-15T19:59:19.713Z,22.20
2018-06-15T20:01:51.389Z,22.20
2018-06-15T20:04:21.069Z,22.20
2018-06-15T20:06:51.401Z,22.20
2018-06-15T20:09:20.487Z,22.20
2018-06-15T20:11:49.014Z,22.20
2018-06-15T20:14:17.506Z,22.20
2018-06-15T20:16:46.050Z,22.20
2018-06-15T20:19:14.620Z,22.10
2018-06-15T20:21:43.173Z,22.10
2018-06-15T20:24:11.693Z,22.00
2018-06-15T20:26:40.279Z,22.00
2018-06-15T20:29:08.814Z,21.90
2018-06-15T20:31:37.335Z,21.90
2018-06-15T20:34:05.865Z,21.80
2018-06-15T20:36:34.406Z,21.80
2018-06-15T20:39:03.157Z,21.80
2018-06-15T20:41:31.678Z,21.80
2018-06-15T20:44:00.267Z,21.70
2018-06-15T20:46:28.824Z,21.70
2018-06-15T20:48:57.434Z,21.70
2018-06-15T20:51:25.985Z,21.60
2018-06-15T20:53:54.592Z,21.60
2018-06-15T20:56:23.234Z,21.50
2018-06-15T20:58:52.084Z,21.50
2018-06-15T21:01:20.692Z,21.50
2018-06-15T21:03:50.319Z,21.40
2018-06-15T21:06:18.970Z,21.30
2018-06-15T21:08:47.539Z,21.20
2018-06-15T21:11:17.177Z,21.10
2018-06-15T21:13:45.724Z,21.00
2018-06-15T21:16:14.409Z,20.90
2018-06-15T21:18:43.618Z,20.90
